sensor_id;sensor_type;location;lat;lon;timestamp;P1;durP1;ratioP1;P2;durP2;ratioP2
7477;SDS011;3780;42.424;25.636;2023-04-03T00:02:12;1.42;;;0.50;;
7477;SDS011;3780;42.424;25.636;2023-04-03T00:04:37;5.15;;;0.63;;
7477;SDS011;3780;42.424;25.636;2023-04-03T00:07:02;0.82;;;0.50;;
7477;SDS011;3780;42.424;25.636;2023-04-03T00:09:28;2.95;;;0.80;;
7477;SDS011;3780;42.424;25.636;2023-04-03T00:11:53;1.20;;;0.70;;
7477;SDS011;3780;42.424;25.636;2023-04-03T00:14:18;2.63;;;0.80;;
7477;SDS011;3780;42.424;25.636;2023-04-03T00:16:43;3.30;;;0.60;;
7477;SDS011;3780;42.424;25.636;2023-04-03T00:19:09;2.25;;;0.90;;
7477;SDS011;3780;42.424;25.636;2023-04-03T00:21:36;2.00;;;0.77;;
7477;SDS011;3780;42.424;25.636;2023-04-03T00:24:02;0.98;;;0.55;;
7477;SDS011;3780;42.424;25.636;2023-04-03T00:26:27;0.93;;;0.52;;
7477;SDS011;3780;42.424;25.636;2023-04-03T00:28:53;1.90;;;0.70;;
7477;SDS011;3780;42.424;25.636;2023-04-03T00:31:18;1.23;;;0.50;;
7477;SDS011;3780;42.424;25.636;2023-04-03T00:33:43;1.00;;;0.57;;
7477;SDS011;3780;42.424;25.636;2023-04-03T00:36:09;1.30;;;0.80;;
7477;SDS011;3780;42.424;25.636;2023-04-03T00:38:35;0.77;;;0.55;;
7477;SDS011;3780;42.424;25.636;2023-04-03T00:41:00;2.47;;;0.77;;
7477;SDS011;3780;42.424;25.636;2023-04-03T00:43:26;1.75;;;0.63;;
7477;SDS011;3780;42.424;25.636;2023-04-03T00:45:57;0.98;;;0.77;;
7477;SDS011;3780;42.424;25.636;2023-04-03T00:50:48;1.27;;;0.82;;
7477;SDS011;3780;42.424;25.636;2023-04-03T00:53:16;2.85;;;0.75;;
7477;SDS011;3780;42.424;25.636;2023-04-03T00:55:42;3.53;;;0.88;;
7477;SDS011;3780;42.424;25.636;2023-04-03T00:58:08;1.63;;;0.80;;
7477;SDS011;3780;42.424;25.636;2023-04-03T01:00:34;1.30;;;0.80;;
7477;SDS011;3780;42.424;25.636;2023-04-03T01:03:01;1.23;;;0.80;;
7477;SDS011;3780;42.424;25.636;2023-04-03T01:05:26;1.50;;;0.77;;
7477;SDS011;3780;42.424;25.636;2023-04-03T01:07:51;2.00;;;0.88;;
7477;SDS011;3780;42.424;25.636;2023-04-03T01:10:17;2.80;;;0.80;;
7477;SDS011;3780;42.424;25.636;2023-04-03T01:12:45;2.35;;;0.85;;
7477;SDS011;3780;42.424;25.636;2023-04-03T01:15:15;1.45;;;0.90;;
7477;SDS011;3780;42.424;25.636;2023-04-03T01:25:27;5.13;;;1.30;;
7477;SDS011;3780;42.424;25.636;2023-04-03T01:27:53;1.42;;;1.00;;
7477;SDS011;3780;42.424;25.636;2023-04-03T01:30:19;2.75;;;0.90;;
7477;SDS011;3780;42.424;25.636;2023-04-03T01:32:45;1.55;;;0.80;;
7477;SDS011;3780;42.424;25.636;2023-04-03T01:35:10;1.48;;;0.70;;
7477;SDS011;3780;42.424;25.636;2023-04-03T01:37:36;2.35;;;0.90;;
7477;SDS011;3780;42.424;25.636;2023-04-03T01:40:01;4.03;;;0.70;;
7477;SDS011;3780;42.424;25.636;2023-04-03T01:42:27;4.32;;;1.00;;
7477;SDS011;3780;42.424;25.636;2023-04-03T01:44:52;3.30;;;1.08;;
7477;SDS011;3780;42.424;25.636;2023-04-03T01:47:17;1.33;;;0.80;;
7477;SDS011;3780;42.424;25.636;2023-04-03T01:49:43;2.10;;;0.90;;
7477;SDS011;3780;42.424;25.636;2023-04-03T01:52:08;2.05;;;1.17;;
7477;SDS011;3780;42.424;25.636;2023-04-03T01:54:33;1.88;;;1.08;;
7477;SDS011;3780;42.424;25.636;2023-04-03T01:56:58;2.40;;;1.20;;
7477;SDS011;3780;42.424;25.636;2023-04-03T01:59:24;1.75;;;1.05;;
7477;SDS011;3780;42.424;25.636;2023-04-03T02:01:49;1.60;;;0.75;;
7477;SDS011;3780;42.424;25.636;2023-04-03T02:04:15;2.78;;;1.10;;
7477;SDS011;3780;42.424;25.636;2023-04-03T02:06:40;4.68;;;2.72;;
7477;SDS011;3780;42.424;25.636;2023-04-03T02:09:05;3.20;;;1.98;;
7477;SDS011;3780;42.424;25.636;2023-04-03T02:11:31;3.33;;;0.88;;
7477;SDS011;3780;42.424;25.636;2023-04-03T02:13:57;1.63;;;0.80;;
7477;SDS011;3780;42.424;25.636;2023-04-03T02:16:22;2.75;;;1.02;;
7477;SDS011;3780;42.424;25.636;2023-04-03T02:18:48;4.00;;;1.33;;
7477;SDS011;3780;42.424;25.636;2023-04-03T02:21:13;3.58;;;1.10;;
7477;SDS011;3780;42.424;25.636;2023-04-03T02:23:38;2.50;;;1.10;;
7477;SDS011;3780;42.424;25.636;2023-04-03T02:26:08;3.92;;;1.05;;
7477;SDS011;3780;42.424;25.636;2023-04-03T02:28:34;3.85;;;1.30;;
7477;SDS011;3780;42.424;25.636;2023-04-03T02:30:59;2.55;;;1.00;;
7477;SDS011;3780;42.424;25.636;2023-04-03T02:33:25;3.22;;;1.35;;
7477;SDS011;3780;42.424;25.636;2023-04-03T02:35:56;2.70;;;1.30;;
7477;SDS011;3780;42.424;25.636;2023-04-03T02:38:22;3.28;;;0.90;;
7477;SDS011;3780;42.424;25.636;2023-04-03T02:40:47;2.25;;;0.90;;
7477;SDS011;3780;42.424;25.636;2023-04-03T02:43:12;2.80;;;1.20;;
7477;SDS011;3780;42.424;25.636;2023-04-03T02:45:38;3.35;;;1.20;;
7477;SDS011;3780;42.424;25.636;2023-04-03T02:48:03;2.05;;;1.00;;
7477;SDS011;3780;42.424;25.636;2023-04-03T02:50:28;4.43;;;1.10;;
7477;SDS011;3780;42.424;25.636;2023-04-03T02:52:54;1.90;;;0.85;;
7477;SDS011;3780;42.424;25.636;2023-04-03T02:55:20;0.90;;;0.50;;
7477;SDS011;3780;42.424;25.636;2023-04-03T02:57:45;1.92;;;0.98;;
7477;SDS011;3780;42.424;25.636;2023-04-03T03:00:10;2.95;;;0.95;;
7477;SDS011;3780;42.424;25.636;2023-04-03T03:02:36;1.88;;;1.00;;
7477;SDS011;3780;42.424;25.636;2023-04-03T03:05:01;4.55;;;1.15;;
7477;SDS011;3780;42.424;25.636;2023-04-03T03:07:26;2.03;;;1.10;;
7477;SDS011;3780;42.424;25.636;2023-04-03T03:09:53;1.77;;;0.77;;
7477;SDS011;3780;42.424;25.636;2023-04-03T03:12:18;1.55;;;0.75;;
7477;SDS011;3780;42.424;25.636;2023-04-03T03:14:46;2.40;;;1.08;;
7477;SDS011;3780;42.424;25.636;2023-04-03T03:17:12;6.72;;;1.30;;
7477;SDS011;3780;42.424;25.636;2023-04-03T03:19:37;3.38;;;1.17;;
7477;SDS011;3780;42.424;25.636;2023-04-03T03:22:02;3.05;;;1.38;;
7477;SDS011;3780;42.424;25.636;2023-04-03T03:24:27;5.40;;;1.10;;
7477;SDS011;3780;42.424;25.636;2023-04-03T03:26:53;4.65;;;1.55;;
7477;SDS011;3780;42.424;25.636;2023-04-03T03:29:18;7.72;;;1.67;;
7477;SDS011;3780;42.424;25.636;2023-04-03T03:31:43;3.35;;;1.10;;
7477;SDS011;3780;42.424;25.636;2023-04-03T03:34:09;8.70;;;1.42;;
7477;SDS011;3780;42.424;25.636;2023-04-03T03:36:35;5.72;;;1.65;;
7477;SDS011;3780;42.424;25.636;2023-04-03T03:39:00;4.28;;;1.20;;
7477;SDS011;3780;42.424;25.636;2023-04-03T03:41:25;4.65;;;1.10;;
7477;SDS011;3780;42.424;25.636;2023-04-03T03:43:51;31.73;;;4.18;;
7477;SDS011;3780;42.424;25.636;2023-04-03T03:46:17;8.43;;;1.95;;
7477;SDS011;3780;42.424;25.636;2023-04-03T03:48:42;4.80;;;1.10;;
7477;SDS011;3780;42.424;25.636;2023-04-03T03:51:07;7.90;;;1.50;;
7477;SDS011;3780;42.424;25.636;2023-04-03T03:53:33;5.35;;;1.80;;
7477;SDS011;3780;42.424;25.636;2023-04-03T03:55:58;8.88;;;2.83;;
7477;SDS011;3780;42.424;25.636;2023-04-03T03:58:23;8.35;;;1.80;;
7477;SDS011;3780;42.424;25.636;2023-04-03T04:00:49;6.20;;;1.75;;
7477;SDS011;3780;42.424;25.636;2023-04-03T04:03:14;5.22;;;2.08;;
7477;SDS011;3780;42.424;25.636;2023-04-03T04:05:39;7.10;;;1.83;;
7477;SDS011;3780;42.424;25.636;2023-04-03T04:08:05;3.17;;;1.33;;
7477;SDS011;3780;42.424;25.636;2023-04-03T04:10:30;5.30;;;2.85;;
7477;SDS011;3780;42.424;25.636;2023-04-03T04:12:56;5.45;;;1.70;;
7477;SDS011;3780;42.424;25.636;2023-04-03T04:15:21;12.85;;;2.08;;
7477;SDS011;3780;42.424;25.636;2023-04-03T04:17:47;6.53;;;2.10;;
7477;SDS011;3780;42.424;25.636;2023-04-03T04:20:13;8.90;;;1.85;;
7477;SDS011;3780;42.424;25.636;2023-04-03T04:22:38;10.88;;;2.70;;
7477;SDS011;3780;42.424;25.636;2023-04-03T04:25:04;4.63;;;1.52;;
7477;SDS011;3780;42.424;25.636;2023-04-03T04:27:29;48.65;;;4.57;;
7477;SDS011;3780;42.424;25.636;2023-04-03T04:29:54;20.02;;;3.00;;
7477;SDS011;3780;42.424;25.636;2023-04-03T04:32:20;5.70;;;2.30;;
7477;SDS011;3780;42.424;25.636;2023-04-03T04:34:45;11.07;;;2.05;;
7477;SDS011;3780;42.424;25.636;2023-04-03T04:37:10;11.52;;;2.75;;
7477;SDS011;3780;42.424;25.636;2023-04-03T04:39:36;13.68;;;2.92;;
7477;SDS011;3780;42.424;25.636;2023-04-03T04:42:01;20.63;;;3.33;;
7477;SDS011;3780;42.424;25.636;2023-04-03T04:44:26;25.05;;;3.55;;
7477;SDS011;3780;42.424;25.636;2023-04-03T04:46:53;14.20;;;2.90;;
7477;SDS011;3780;42.424;25.636;2023-04-03T04:49:18;22.50;;;3.53;;
7477;SDS011;3780;42.424;25.636;2023-04-03T04:51:43;23.33;;;4.30;;
7477;SDS011;3780;42.424;25.636;2023-04-03T04:54:09;19.70;;;4.20;;
7477;SDS011;3780;42.424;25.636;2023-04-03T04:56:35;13.52;;;2.97;;
7477;SDS011;3780;42.424;25.636;2023-04-03T04:59:00;9.25;;;2.45;;
7477;SDS011;3780;42.424;25.636;2023-04-03T05:01:26;22.20;;;3.10;;
7477;SDS011;3780;42.424;25.636;2023-04-03T05:03:51;16.27;;;4.72;;
7477;SDS011;3780;42.424;25.636;2023-04-03T05:06:16;17.75;;;6.00;;
7477;SDS011;3780;42.424;25.636;2023-04-03T05:08:42;22.75;;;6.00;;
7477;SDS011;3780;42.424;25.636;2023-04-03T05:11:07;22.33;;;4.80;;
7477;SDS011;3780;42.424;25.636;2023-04-03T05:13:32;19.00;;;5.20;;
7477;SDS011;3780;42.424;25.636;2023-04-03T05:15:58;25.95;;;4.88;;
7477;SDS011;3780;42.424;25.636;2023-04-03T05:18:23;11.40;;;3.30;;
7477;SDS011;3780;42.424;25.636;2023-04-03T05:20:49;12.18;;;3.70;;
7477;SDS011;3780;42.424;25.636;2023-04-03T05:23:15;9.20;;;2.90;;
7477;SDS011;3780;42.424;25.636;2023-04-03T05:25:41;10.02;;;3.08;;
7477;SDS011;3780;42.424;25.636;2023-04-03T05:28:06;20.83;;;4.05;;
7477;SDS011;3780;42.424;25.636;2023-04-03T05:30:31;15.00;;;3.13;;
7477;SDS011;3780;42.424;25.636;2023-04-03T05:32:58;19.77;;;3.72;;
7477;SDS011;3780;42.424;25.636;2023-04-03T05:35:23;13.05;;;3.97;;
7477;SDS011;3780;42.424;25.636;2023-04-03T05:37:48;28.33;;;8.00;;
7477;SDS011;3780;42.424;25.636;2023-04-03T05:40:14;20.70;;;6.20;;
7477;SDS011;3780;42.424;25.636;2023-04-03T05:42:39;38.08;;;18.38;;
7477;SDS011;3780;42.424;25.636;2023-04-03T05:45:04;18.08;;;4.07;;
7477;SDS011;3780;42.424;25.636;2023-04-03T05:47:30;34.78;;;14.35;;
7477;SDS011;3780;42.424;25.636;2023-04-03T05:49:56;18.92;;;4.10;;
7477;SDS011;3780;42.424;25.636;2023-04-03T05:52:31;18.10;;;5.20;;
7477;SDS011;3780;42.424;25.636;2023-04-03T05:54:58;17.67;;;4.10;;
7477;SDS011;3780;42.424;25.636;2023-04-03T05:57:23;11.50;;;4.22;;
7477;SDS011;3780;42.424;25.636;2023-04-03T05:59:48;19.73;;;4.10;;
7477;SDS011;3780;42.424;25.636;2023-04-03T06:02:15;49.05;;;7.53;;
7477;SDS011;3780;42.424;25.636;2023-04-03T06:04:41;22.08;;;4.70;;
7477;SDS011;3780;42.424;25.636;2023-04-03T06:07:06;35.00;;;5.50;;
7477;SDS011;3780;42.424;25.636;2023-04-03T06:09:32;33.50;;;4.95;;
7477;SDS011;3780;42.424;25.636;2023-04-03T06:11:58;17.40;;;3.92;;
7477;SDS011;3780;42.424;25.636;2023-04-03T06:14:24;22.80;;;4.82;;
7477;SDS011;3780;42.424;25.636;2023-04-03T06:16:49;18.80;;;4.55;;
7477;SDS011;3780;42.424;25.636;2023-04-03T06:19:15;12.82;;;3.58;;
7477;SDS011;3780;42.424;25.636;2023-04-03T06:21:40;90.15;;;12.70;;
7477;SDS011;3780;42.424;25.636;2023-04-03T06:24:06;12.65;;;3.28;;
7477;SDS011;3780;42.424;25.636;2023-04-03T06:26:32;23.83;;;3.28;;
7477;SDS011;3780;42.424;25.636;2023-04-03T06:28:58;15.02;;;5.13;;
7477;SDS011;3780;42.424;25.636;2023-04-03T06:31:23;25.77;;;9.18;;
7477;SDS011;3780;42.424;25.636;2023-04-03T06:33:48;38.22;;;6.72;;
7477;SDS011;3780;42.424;25.636;2023-04-03T06:36:14;9.55;;;5.15;;
7477;SDS011;3780;42.424;25.636;2023-04-03T06:38:44;17.80;;;5.47;;
7477;SDS011;3780;42.424;25.636;2023-04-03T06:41:10;24.50;;;7.95;;
7477;SDS011;3780;42.424;25.636;2023-04-03T06:43:35;26.83;;;7.38;;
7477;SDS011;3780;42.424;25.636;2023-04-03T06:46:01;25.05;;;7.15;;
7477;SDS011;3780;42.424;25.636;2023-04-03T06:48:26;22.23;;;7.25;;
7477;SDS011;3780;42.424;25.636;2023-04-03T06:50:52;16.92;;;7.20;;
7477;SDS011;3780;42.424;25.636;2023-04-03T06:53:18;19.40;;;7.28;;
7477;SDS011;3780;42.424;25.636;2023-04-03T06:55:43;22.27;;;8.60;;
7477;SDS011;3780;42.424;25.636;2023-04-03T06:58:08;16.15;;;7.57;;
7477;SDS011;3780;42.424;25.636;2023-04-03T07:00:34;37.97;;;21.88;;
7477;SDS011;3780;42.424;25.636;2023-04-03T07:03:00;34.83;;;14.57;;
7477;SDS011;3780;42.424;25.636;2023-04-03T07:05:25;29.45;;;9.38;;
7477;SDS011;3780;42.424;25.636;2023-04-03T07:07:51;29.17;;;9.43;;
7477;SDS011;3780;42.424;25.636;2023-04-03T07:10:17;30.48;;;9.30;;
7477;SDS011;3780;42.424;25.636;2023-04-03T07:12:42;37.97;;;10.57;;
7477;SDS011;3780;42.424;25.636;2023-04-03T07:15:08;22.65;;;8.10;;
7477;SDS011;3780;42.424;25.636;2023-04-03T07:17:33;19.90;;;6.50;;
7477;SDS011;3780;42.424;25.636;2023-04-03T07:19:59;19.80;;;7.63;;
7477;SDS011;3780;42.424;25.636;2023-04-03T07:22:24;16.73;;;6.28;;
7477;SDS011;3780;42.424;25.636;2023-04-03T07:24:49;12.65;;;5.28;;
7477;SDS011;3780;42.424;25.636;2023-04-03T07:27:15;12.13;;;4.50;;
7477;SDS011;3780;42.424;25.636;2023-04-03T07:29:42;8.10;;;3.33;;
7477;SDS011;3780;42.424;25.636;2023-04-03T07:32:08;7.50;;;3.30;;
7477;SDS011;3780;42.424;25.636;2023-04-03T07:34:33;16.20;;;3.67;;
7477;SDS011;3780;42.424;25.636;2023-04-03T07:36:59;8.82;;;2.83;;
7477;SDS011;3780;42.424;25.636;2023-04-03T07:39:25;9.23;;;2.88;;
7477;SDS011;3780;42.424;25.636;2023-04-03T07:41:50;13.35;;;3.50;;
7477;SDS011;3780;42.424;25.636;2023-04-03T07:44:16;7.70;;;2.95;;
7477;SDS011;3780;42.424;25.636;2023-04-03T07:46:41;11.65;;;3.78;;
7477;SDS011;3780;42.424;25.636;2023-04-03T07:49:07;5.22;;;1.90;;
7477;SDS011;3780;42.424;25.636;2023-04-03T07:51:32;5.97;;;2.63;;
7477;SDS011;3780;42.424;25.636;2023-04-03T07:53:58;6.85;;;2.40;;
7477;SDS011;3780;42.424;25.636;2023-04-03T07:56:23;9.27;;;3.08;;
7477;SDS011;3780;42.424;25.636;2023-04-03T07:58:50;9.40;;;3.55;;
7477;SDS011;3780;42.424;25.636;2023-04-03T08:01:15;8.00;;;3.35;;
7477;SDS011;3780;42.424;25.636;2023-04-03T08:03:40;12.45;;;4.75;;
7477;SDS011;3780;42.424;25.636;2023-04-03T08:06:07;14.65;;;5.13;;
7477;SDS011;3780;42.424;25.636;2023-04-03T08:08:33;10.35;;;3.55;;
7477;SDS011;3780;42.424;25.636;2023-04-03T08:10:59;6.90;;;3.05;;
7477;SDS011;3780;42.424;25.636;2023-04-03T08:13:25;5.47;;;2.50;;
7477;SDS011;3780;42.424;25.636;2023-04-03T08:15:50;5.80;;;2.58;;
7477;SDS011;3780;42.424;25.636;2023-04-03T08:18:16;8.27;;;2.80;;
7477;SDS011;3780;42.424;25.636;2023-04-03T08:20:41;4.80;;;2.78;;
7477;SDS011;3780;42.424;25.636;2023-04-03T08:23:07;7.13;;;2.80;;
7477;SDS011;3780;42.424;25.636;2023-04-03T08:25:34;17.75;;;8.75;;
7477;SDS011;3780;42.424;25.636;2023-04-03T08:27:59;5.68;;;2.50;;
7477;SDS011;3780;42.424;25.636;2023-04-03T08:30:25;11.43;;;1.77;;
7477;SDS011;3780;42.424;25.636;2023-04-03T08:32:51;2.20;;;1.42;;
7477;SDS011;3780;42.424;25.636;2023-04-03T08:35:16;5.45;;;2.03;;
7477;SDS011;3780;42.424;25.636;2023-04-03T08:37:41;13.57;;;4.57;;
7477;SDS011;3780;42.424;25.636;2023-04-03T08:40:07;9.18;;;2.30;;
7477;SDS011;3780;42.424;25.636;2023-04-03T08:42:40;7.28;;;2.63;;
7477;SDS011;3780;42.424;25.636;2023-04-03T08:47:52;5.88;;;1.60;;
7477;SDS011;3780;42.424;25.636;2023-04-03T08:50:22;6.15;;;1.55;;
7477;SDS011;3780;42.424;25.636;2023-04-03T08:52:51;3.47;;;1.55;;
7477;SDS011;3780;42.424;25.636;2023-04-03T08:57:43;6.72;;;2.30;;
7477;SDS011;3780;42.424;25.636;2023-04-03T09:00:16;2.65;;;1.40;;
7477;SDS011;3780;42.424;25.636;2023-04-03T09:02:49;4.97;;;1.60;;
7477;SDS011;3780;42.424;25.636;2023-04-03T09:05:19;5.75;;;1.30;;
7477;SDS011;3780;42.424;25.636;2023-04-03T09:07:46;4.75;;;1.05;;
7477;SDS011;3780;42.424;25.636;2023-04-03T09:10:13;9.80;;;1.27;;
7477;SDS011;3780;42.424;25.636;2023-04-03T09:12:40;11.02;;;1.52;;
7477;SDS011;3780;42.424;25.636;2023-04-03T09:22:26;3.95;;;1.98;;
7477;SDS011;3780;42.424;25.636;2023-04-03T09:27:23;4.93;;;1.30;;
7477;SDS011;3780;42.424;25.636;2023-04-03T09:29:48;1.90;;;0.73;;
7477;SDS011;3780;42.424;25.636;2023-04-03T09:34:42;2.05;;;0.80;;
7477;SDS011;3780;42.424;25.636;2023-04-03T09:37:08;3.45;;;0.90;;
7477;SDS011;3780;42.424;25.636;2023-04-03T09:39:52;2.92;;;0.85;;
7477;SDS011;3780;42.424;25.636;2023-04-03T09:44:55;5.28;;;1.10;;
7477;SDS011;3780;42.424;25.636;2023-04-03T09:47:29;4.90;;;1.17;;
7477;SDS011;3780;42.424;25.636;2023-04-03T09:52:39;3.55;;;1.20;;
7477;SDS011;3780;42.424;25.636;2023-04-03T09:55:07;7.00;;;1.67;;
7477;SDS011;3780;42.424;25.636;2023-04-03T09:57:33;1.40;;;0.65;;
7477;SDS011;3780;42.424;25.636;2023-04-03T09:59:59;5.60;;;1.27;;
7477;SDS011;3780;42.424;25.636;2023-04-03T10:02:32;2.10;;;1.10;;
7477;SDS011;3780;42.424;25.636;2023-04-03T10:04:59;3.40;;;1.02;;
7477;SDS011;3780;42.424;25.636;2023-04-03T10:12:38;2.15;;;1.15;;
7477;SDS011;3780;42.424;25.636;2023-04-03T10:15:10;5.38;;;1.52;;
7477;SDS011;3780;42.424;25.636;2023-04-03T10:17:54;3.78;;;1.30;;
7477;SDS011;3780;42.424;25.636;2023-04-03T10:20:25;6.63;;;1.40;;
7477;SDS011;3780;42.424;25.636;2023-04-03T10:23:36;3.35;;;1.33;;
7477;SDS011;3780;42.424;25.636;2023-04-03T10:28:12;4.35;;;1.20;;
7477;SDS011;3780;42.424;25.636;2023-04-03T10:33:52;3.15;;;1.17;;
7477;SDS011;3780;42.424;25.636;2023-04-03T10:36:29;6.72;;;1.90;;
7477;SDS011;3780;42.424;25.636;2023-04-03T10:57:21;9.13;;;2.40;;
7477;SDS011;3780;42.424;25.636;2023-04-03T11:02:39;3.22;;;1.58;;
7477;SDS011;3780;42.424;25.636;2023-04-03T11:05:18;2.10;;;1.40;;
7477;SDS011;3780;42.424;25.636;2023-04-03T11:07:46;6.50;;;1.48;;
7477;SDS011;3780;42.424;25.636;2023-04-03T11:13:02;15.30;;;2.35;;
7477;SDS011;3780;42.424;25.636;2023-04-03T11:15:30;4.25;;;1.80;;
7477;SDS011;3780;42.424;25.636;2023-04-03T11:17:59;6.05;;;1.98;;
7477;SDS011;3780;42.424;25.636;2023-04-03T11:20:29;5.22;;;1.83;;
7477;SDS011;3780;42.424;25.636;2023-04-03T11:23:02;4.93;;;2.15;;
7477;SDS011;3780;42.424;25.636;2023-04-03T11:25:29;6.90;;;3.00;;
7477;SDS011;3780;42.424;25.636;2023-04-03T11:27:59;8.27;;;4.00;;
7477;SDS011;3780;42.424;25.636;2023-04-03T11:35:35;10.25;;;5.05;;
7477;SDS011;3780;42.424;25.636;2023-04-03T11:38:01;12.35;;;5.22;;
7477;SDS011;3780;42.424;25.636;2023-04-03T11:40:31;13.15;;;4.97;;
7477;SDS011;3780;42.424;25.636;2023-04-03T11:45:59;13.48;;;4.50;;
7477;SDS011;3780;42.424;25.636;2023-04-03T11:50:57;10.63;;;4.85;;
7477;SDS011;3780;42.424;25.636;2023-04-03T12:05:55;11.70;;;5.15;;
7477;SDS011;3780;42.424;25.636;2023-04-03T12:08:29;20.15;;;13.70;;
7477;SDS011;3780;42.424;25.636;2023-04-03T12:13:20;30.52;;;16.52;;
7477;SDS011;3780;42.424;25.636;2023-04-03T12:15:49;34.28;;;12.93;;
7477;SDS011;3780;42.424;25.636;2023-04-03T12:20:59;31.10;;;11.30;;
7477;SDS011;3780;42.424;25.636;2023-04-03T12:23:32;29.33;;;15.73;;
7477;SDS011;3780;42.424;25.636;2023-04-03T12:26:03;27.25;;;13.65;;
7477;SDS011;3780;42.424;25.636;2023-04-03T12:28:30;30.15;;;11.73;;
7477;SDS011;3780;42.424;25.636;2023-04-03T12:31:00;22.92;;;8.57;;
7477;SDS011;3780;42.424;25.636;2023-04-03T12:33:38;30.38;;;10.75;;
7477;SDS011;3780;42.424;25.636;2023-04-03T12:36:18;23.13;;;7.43;;
7477;SDS011;3780;42.424;25.636;2023-04-03T12:38:52;19.73;;;8.10;;
7477;SDS011;3780;42.424;25.636;2023-04-03T12:46:21;24.65;;;11.90;;
7477;SDS011;3780;42.424;25.636;2023-04-03T12:48:49;23.60;;;9.60;;
7477;SDS011;3780;42.424;25.636;2023-04-03T12:51:19;20.92;;;9.88;;
7477;SDS011;3780;42.424;25.636;2023-04-03T12:53:46;13.65;;;8.07;;
7477;SDS011;3780;42.424;25.636;2023-04-03T12:56:25;15.45;;;6.90;;
7477;SDS011;3780;42.424;25.636;2023-04-03T12:58:51;20.23;;;7.65;;
7477;SDS011;3780;42.424;25.636;2023-04-03T13:01:18;12.93;;;8.05;;
7477;SDS011;3780;42.424;25.636;2023-04-03T13:03:56;14.20;;;7.18;;
7477;SDS011;3780;42.424;25.636;2023-04-03T13:06:37;15.15;;;9.32;;
7477;SDS011;3780;42.424;25.636;2023-04-03T13:09:03;16.35;;;9.93;;
7477;SDS011;3780;42.424;25.636;2023-04-03T13:11:39;15.38;;;7.78;;
7477;SDS011;3780;42.424;25.636;2023-04-03T13:14:14;14.25;;;7.55;;
7477;SDS011;3780;42.424;25.636;2023-04-03T13:16:40;15.50;;;7.90;;
7477;SDS011;3780;42.424;25.636;2023-04-03T13:19:06;15.13;;;8.65;;
7477;SDS011;3780;42.424;25.636;2023-04-03T13:21:40;22.52;;;9.23;;
7477;SDS011;3780;42.424;25.636;2023-04-03T13:24:06;19.77;;;9.68;;
7477;SDS011;3780;42.424;25.636;2023-04-03T13:26:31;17.52;;;8.20;;
7477;SDS011;3780;42.424;25.636;2023-04-03T13:29:05;17.38;;;7.22;;
7477;SDS011;3780;42.424;25.636;2023-04-03T13:31:32;16.00;;;8.85;;
7477;SDS011;3780;42.424;25.636;2023-04-03T13:34:17;15.50;;;8.52;;
7477;SDS011;3780;42.424;25.636;2023-04-03T13:36:54;15.38;;;9.13;;
7477;SDS011;3780;42.424;25.636;2023-04-03T13:39:28;16.70;;;10.43;;
7477;SDS011;3780;42.424;25.636;2023-04-03T13:41:55;17.55;;;9.27;;
7477;SDS011;3780;42.424;25.636;2023-04-03T13:46:47;34.78;;;20.48;;
7477;SDS011;3780;42.424;25.636;2023-04-03T13:51:44;23.13;;;11.07;;
7477;SDS011;3780;42.424;25.636;2023-04-03T13:54:20;22.95;;;11.20;;
7477;SDS011;3780;42.424;25.636;2023-04-03T13:56:51;20.85;;;9.70;;
7477;SDS011;3780;42.424;25.636;2023-04-03T14:01:45;25.90;;;11.13;;
7477;SDS011;3780;42.424;25.636;2023-04-03T14:04:18;27.00;;;11.90;;
7477;SDS011;3780;42.424;25.636;2023-04-03T14:06:47;23.48;;;11.10;;
7477;SDS011;3780;42.424;25.636;2023-04-03T14:09:13;19.50;;;9.40;;
7477;SDS011;3780;42.424;25.636;2023-04-03T14:11:38;21.15;;;9.85;;
7477;SDS011;3780;42.424;25.636;2023-04-03T14:14:16;16.50;;;9.32;;
7477;SDS011;3780;42.424;25.636;2023-04-03T14:16:43;19.30;;;8.65;;
7477;SDS011;3780;42.424;25.636;2023-04-03T14:19:14;13.32;;;8.48;;
7477;SDS011;3780;42.424;25.636;2023-04-03T14:21:43;14.40;;;8.38;;
7477;SDS011;3780;42.424;25.636;2023-04-03T14:24:08;15.93;;;8.48;;
7477;SDS011;3780;42.424;25.636;2023-04-03T14:26:33;15.25;;;8.93;;
7477;SDS011;3780;42.424;25.636;2023-04-03T14:28:59;15.32;;;7.80;;
7477;SDS011;3780;42.424;25.636;2023-04-03T14:31:24;14.65;;;7.10;;
7477;SDS011;3780;42.424;25.636;2023-04-03T14:33:50;14.55;;;7.97;;
7477;SDS011;3780;42.424;25.636;2023-04-03T14:36:22;15.25;;;7.35;;
7477;SDS011;3780;42.424;25.636;2023-04-03T14:38:49;12.57;;;7.25;;
7477;SDS011;3780;42.424;25.636;2023-04-03T14:41:15;12.00;;;6.35;;
7477;SDS011;3780;42.424;25.636;2023-04-03T14:43:41;9.40;;;6.88;;
7477;SDS011;3780;42.424;25.636;2023-04-03T14:46:14;10.90;;;6.72;;
7477;SDS011;3780;42.424;25.636;2023-04-03T14:48:40;9.63;;;6.57;;
7477;SDS011;3780;42.424;25.636;2023-04-03T14:51:05;13.38;;;6.40;;
7477;SDS011;3780;42.424;25.636;2023-04-03T14:53:30;11.88;;;6.40;;
7477;SDS011;3780;42.424;25.636;2023-04-03T14:55:57;12.07;;;6.32;;
7477;SDS011;3780;42.424;25.636;2023-04-03T14:58:23;13.55;;;6.93;;
7477;SDS011;3780;42.424;25.636;2023-04-03T15:00:48;11.00;;;5.88;;
7477;SDS011;3780;42.424;25.636;2023-04-03T15:03:18;10.32;;;7.07;;
7477;SDS011;3780;42.424;25.636;2023-04-03T15:05:44;12.45;;;6.45;;
7477;SDS011;3780;42.424;25.636;2023-04-03T15:08:16;11.55;;;6.35;;
7477;SDS011;3780;42.424;25.636;2023-04-03T15:10:42;8.98;;;5.07;;
7477;SDS011;3780;42.424;25.636;2023-04-03T15:13:08;11.00;;;6.13;;
7477;SDS011;3780;42.424;25.636;2023-04-03T15:15:33;9.43;;;5.55;;
7477;SDS011;3780;42.424;25.636;2023-04-03T15:17:59;5.80;;;4.47;;
7477;SDS011;3780;42.424;25.636;2023-04-03T15:20:26;8.15;;;4.85;;
7477;SDS011;3780;42.424;25.636;2023-04-03T15:22:52;9.70;;;4.85;;
7477;SDS011;3780;42.424;25.636;2023-04-03T15:25:17;11.25;;;5.18;;
7477;SDS011;3780;42.424;25.636;2023-04-03T15:27:43;12.80;;;5.35;;
7477;SDS011;3780;42.424;25.636;2023-04-03T15:30:11;12.82;;;6.35;;
7477;SDS011;3780;42.424;25.636;2023-04-03T15:32:38;12.63;;;5.45;;
7477;SDS011;3780;42.424;25.636;2023-04-03T15:35:03;8.82;;;4.85;;
7477;SDS011;3780;42.424;25.636;2023-04-03T15:37:28;10.55;;;5.13;;
7477;SDS011;3780;42.424;25.636;2023-04-03T15:39:54;8.88;;;4.55;;
7477;SDS011;3780;42.424;25.636;2023-04-03T15:42:19;11.23;;;4.63;;
7477;SDS011;3780;42.424;25.636;2023-04-03T15:44:45;13.82;;;7.55;;
7477;SDS011;3780;42.424;25.636;2023-04-03T15:47:10;11.45;;;5.68;;
7477;SDS011;3780;42.424;25.636;2023-04-03T15:49:35;10.88;;;4.50;;
7477;SDS011;3780;42.424;25.636;2023-04-03T15:52:01;6.40;;;2.95;;
7477;SDS011;3780;42.424;25.636;2023-04-03T15:54:26;4.93;;;3.15;;
7477;SDS011;3780;42.424;25.636;2023-04-03T15:56:52;6.70;;;3.30;;
7477;SDS011;3780;42.424;25.636;2023-04-03T15:59:17;4.28;;;2.70;;
7477;SDS011;3780;42.424;25.636;2023-04-03T16:01:43;5.28;;;3.28;;
7477;SDS011;3780;42.424;25.636;2023-04-03T16:04:08;5.57;;;3.40;;
7477;SDS011;3780;42.424;25.636;2023-04-03T16:06:34;5.47;;;2.65;;
7477;SDS011;3780;42.424;25.636;2023-04-03T16:09:00;4.63;;;2.60;;
7477;SDS011;3780;42.424;25.636;2023-04-03T16:11:26;8.55;;;6.32;;
7477;SDS011;3780;42.424;25.636;2023-04-03T16:13:51;18.58;;;13.20;;
7477;SDS011;3780;42.424;25.636;2023-04-03T16:16:17;6.80;;;3.58;;
7477;SDS011;3780;42.424;25.636;2023-04-03T16:18:42;4.30;;;2.80;;
7477;SDS011;3780;42.424;25.636;2023-04-03T16:21:08;5.95;;;4.07;;
7477;SDS011;3780;42.424;25.636;2023-04-03T16:23:33;5.82;;;3.88;;
7477;SDS011;3780;42.424;25.636;2023-04-03T16:25:59;5.97;;;4.32;;
7477;SDS011;3780;42.424;25.636;2023-04-03T16:28:25;5.25;;;4.13;;
7477;SDS011;3780;42.424;25.636;2023-04-03T16:30:50;5.05;;;4.50;;
7477;SDS011;3780;42.424;25.636;2023-04-03T16:33:16;6.78;;;5.35;;
7477;SDS011;3780;42.424;25.636;2023-04-03T16:35:41;6.47;;;4.97;;
7477;SDS011;3780;42.424;25.636;2023-04-03T16:38:08;6.75;;;5.40;;
7477;SDS011;3780;42.424;25.636;2023-04-03T16:40:33;8.63;;;6.32;;
7477;SDS011;3780;42.424;25.636;2023-04-03T16:43:00;8.80;;;5.85;;